EJU46JC LPPR-LPPS
Flight info
| Callsign | EJU46JC |
|---|---|
| Flight time | 1h 37m |
| Altitude | 35000 |
| Route | ASMOV DCT DIRMA DCT TUNAV DCT VERAM DCT RAKUN |
| Aircraft | A320/M-SDE2E3FGHIJ1RWXYZ/LB1 |
Departure
| Time | 2026-05-06 16:47 |
|---|---|
| Airport | Francisco de Sá Carneiro Airport (LPPR) |
Arrival
| Time | 2026-05-06 18:24 |
|---|---|
| Airport | Porto Santo Airport (LPPS) |
| Time | Latitude | Longitude | Altitude | Speed | Heading |
|---|---|---|---|---|---|
| 2026-05-06 16:26 | 41.24105 | -8.67337 | 245 ft | 0 kts | 79° |
| 2026-05-06 16:38 | 41.24101 | -8.67362 | 245 ft | 4 kts | 79° |
| 2026-05-06 16:38 | 41.24097 | -8.67392 | 244 ft | 2 kts | 79° |
| 2026-05-06 16:38 | 41.24095 | -8.67419 | 243 ft | 4 kts | 111° |
| 2026-05-06 16:39 | 41.24108 | -8.67443 | 242 ft | 4 kts | 146° |
| 2026-05-06 16:39 | 41.24127 | -8.67457 | 242 ft | 1 kts | 154° |
| 2026-05-06 16:41 | 41.24126 | -8.67457 | 242 ft | 0 kts | 154° |
| 2026-05-06 16:42 | 41.24116 | -8.67451 | 242 ft | 3 kts | 156° |
| 2026-05-06 16:42 | 41.24082 | -8.67436 | 242 ft | 7 kts | 165° |
| 2026-05-06 16:42 | 41.24017 | -8.67418 | 242 ft | 11 kts | 171° |
| 2026-05-06 16:42 | 41.23952 | -8.67462 | 240 ft | 11 kts | 233° |
| 2026-05-06 16:43 | 41.23930 | -8.67563 | 239 ft | 11 kts | 258° |
| 2026-05-06 16:43 | 41.23913 | -8.67675 | 229 ft | 12 kts | 258° |
| 2026-05-06 16:43 | 41.23903 | -8.67737 | 227 ft | 1 kts | 259° |
| 2026-05-06 16:43 | 41.23903 | -8.67738 | 226 ft | 0 kts | 259° |
| 2026-05-06 16:44 | 41.23900 | -8.67762 | 224 ft | 7 kts | 259° |
| 2026-05-06 16:44 | 41.23887 | -8.67848 | 222 ft | 7 kts | 259° |
| 2026-05-06 16:45 | 41.23918 | -8.67893 | 222 ft | 2 kts | 351° |
| 2026-05-06 16:45 | 41.23920 | -8.67893 | 222 ft | 0 kts | 351° |
| 2026-05-06 16:46 | 41.23938 | -8.67898 | 221 ft | 10 kts | 349° |
| 2026-05-06 16:46 | 41.24216 | -8.67971 | 214 ft | 76 kts | 348° |
| 2026-05-06 16:46 | 41.24937 | -8.68162 | 197 ft | 134 kts | 348° |
| 2026-05-06 16:46 | 41.25957 | -8.68426 | 531 ft | 152 kts | 347° |
| 2026-05-06 16:47 | 41.26980 | -8.68693 | 1310 ft | 149 kts | 348° |
| 2026-05-06 16:47 | 41.28037 | -8.68969 | 1843 ft | 164 kts | 347° |
| 2026-05-06 16:47 | 41.29229 | -8.69285 | 2198 ft | 186 kts | 348° |
| 2026-05-06 16:47 | 41.30578 | -8.69645 | 2543 ft | 210 kts | 347° |
| 2026-05-06 16:48 | 41.32094 | -8.70048 | 2932 ft | 234 kts | 346° |
| 2026-05-06 16:48 | 41.33611 | -8.70946 | 3560 ft | 247 kts | 321° |
| 2026-05-06 16:48 | 41.34649 | -8.72799 | 4233 ft | 258 kts | 290° |
| 2026-05-06 16:48 | 41.34787 | -8.75191 | 4971 ft | 267 kts | 256° |
| 2026-05-06 16:49 | 41.33920 | -8.77374 | 5769 ft | 272 kts | 230° |
| 2026-05-06 16:49 | 41.32697 | -8.79302 | 6638 ft | 273 kts | 228° |
| 2026-05-06 16:49 | 41.31450 | -8.81227 | 7449 ft | 276 kts | 228° |
| 2026-05-06 16:49 | 41.30184 | -8.83175 | 8249 ft | 280 kts | 228° |
| 2026-05-06 16:50 | 41.28907 | -8.85150 | 9049 ft | 284 kts | 227° |
| 2026-05-06 16:50 | 41.27617 | -8.87157 | 9852 ft | 287 kts | 228° |
| 2026-05-06 16:50 | 41.26298 | -8.89214 | 10340 ft | 302 kts | 227° |
| 2026-05-06 16:50 | 41.24884 | -8.91415 | 10567 ft | 324 kts | 229° |
| 2026-05-06 16:51 | 41.23400 | -8.93728 | 11118 ft | 332 kts | 229° |
| 2026-05-06 16:51 | 41.21893 | -8.96081 | 11837 ft | 336 kts | 229° |
| 2026-05-06 16:51 | 41.20375 | -8.98451 | 12600 ft | 337 kts | 229° |
| 2026-05-06 16:51 | 41.18850 | -9.00830 | 13330 ft | 340 kts | 230° |
| 2026-05-06 16:52 | 41.17309 | -9.03230 | 13996 ft | 343 kts | 230° |
| 2026-05-06 16:52 | 41.15752 | -9.05643 | 14611 ft | 346 kts | 230° |
| 2026-05-06 16:52 | 41.14205 | -9.08035 | 15274 ft | 347 kts | 230° |
| 2026-05-06 16:52 | 41.12626 | -9.10478 | 15863 ft | 351 kts | 230° |
| 2026-05-06 16:53 | 41.11030 | -9.12954 | 16434 ft | 354 kts | 230° |
| 2026-05-06 16:53 | 41.09423 | -9.15447 | 17074 ft | 356 kts | 230° |
| 2026-05-06 16:53 | 41.07776 | -9.17915 | 17670 ft | 359 kts | 224° |
| 2026-05-06 16:53 | 41.05816 | -9.19992 | 18220 ft | 363 kts | 217° |
| 2026-05-06 16:54 | 41.03795 | -9.22013 | 18775 ft | 365 kts | 218° |
| 2026-05-06 16:54 | 41.01765 | -9.24028 | 19348 ft | 365 kts | 217° |
| 2026-05-06 16:54 | 40.99722 | -9.26052 | 19844 ft | 368 kts | 217° |
| 2026-05-06 16:54 | 40.97662 | -9.28094 | 20361 ft | 370 kts | 217° |
| 2026-05-06 16:55 | 40.95603 | -9.30137 | 20971 ft | 369 kts | 217° |
| 2026-05-06 16:55 | 40.93544 | -9.32183 | 21476 ft | 371 kts | 217° |
| 2026-05-06 16:55 | 40.91468 | -9.34249 | 21897 ft | 375 kts | 217° |
| 2026-05-06 16:55 | 40.89379 | -9.36321 | 22443 ft | 375 kts | 217° |
| 2026-05-06 16:56 | 40.87283 | -9.38396 | 22909 ft | 378 kts | 217° |
| 2026-05-06 16:56 | 40.85168 | -9.40490 | 23309 ft | 382 kts | 217° |
| 2026-05-06 16:56 | 40.83040 | -9.42599 | 23789 ft | 382 kts | 217° |
| 2026-05-06 16:56 | 40.80913 | -9.44706 | 24185 ft | 384 kts | 217° |
| 2026-05-06 16:57 | 40.78762 | -9.46828 | 24538 ft | 387 kts | 217° |
| 2026-05-06 16:57 | 40.76600 | -9.48960 | 24884 ft | 389 kts | 217° |
| 2026-05-06 16:57 | 40.74429 | -9.51101 | 25283 ft | 391 kts | 217° |
| 2026-05-06 16:57 | 40.72248 | -9.53251 | 25610 ft | 393 kts | 217° |
| 2026-05-06 16:58 | 40.70050 | -9.55413 | 25981 ft | 395 kts | 217° |
| 2026-05-06 16:58 | 40.67846 | -9.57579 | 26362 ft | 396 kts | 217° |
| 2026-05-06 16:58 | 40.65629 | -9.59756 | 26693 ft | 399 kts | 217° |
| 2026-05-06 16:58 | 40.63400 | -9.61944 | 27039 ft | 400 kts | 217° |
| 2026-05-06 16:59 | 40.61167 | -9.64137 | 27402 ft | 402 kts | 217° |
| 2026-05-06 16:59 | 40.58918 | -9.66344 | 27729 ft | 404 kts | 217° |
| 2026-05-06 16:59 | 40.56659 | -9.68560 | 28075 ft | 406 kts | 217° |
| 2026-05-06 16:59 | 40.54389 | -9.70781 | 28414 ft | 408 kts | 217° |
| 2026-05-06 17:00 | 40.52104 | -9.73013 | 28730 ft | 410 kts | 217° |
| 2026-05-06 17:00 | 40.49814 | -9.75252 | 29061 ft | 412 kts | 217° |
| 2026-05-06 17:00 | 40.47510 | -9.77506 | 29366 ft | 414 kts | 217° |
| 2026-05-06 17:00 | 40.45198 | -9.79763 | 29678 ft | 415 kts | 217° |
| 2026-05-06 17:01 | 40.42871 | -9.82029 | 29982 ft | 417 kts | 217° |
| 2026-05-06 17:01 | 40.40534 | -9.84301 | 30233 ft | 419 kts | 217° |
| 2026-05-06 17:01 | 40.38182 | -9.86586 | 30457 ft | 422 kts | 217° |
| 2026-05-06 17:01 | 40.35824 | -9.88878 | 30684 ft | 423 kts | 217° |
| 2026-05-06 17:02 | 40.33455 | -9.91183 | 30921 ft | 425 kts | 217° |
| 2026-05-06 17:02 | 40.31081 | -9.93486 | 31231 ft | 424 kts | 217° |
| 2026-05-06 17:02 | 40.28711 | -9.95776 | 31572 ft | 423 kts | 217° |
| 2026-05-06 17:02 | 40.26349 | -9.98057 | 31915 ft | 422 kts | 217° |
| 2026-05-06 17:03 | 40.23994 | -10.00334 | 32261 ft | 420 kts | 218° |
| 2026-05-06 17:03 | 40.21673 | -10.02580 | 32597 ft | 419 kts | 218° |
| 2026-05-06 17:03 | 40.19298 | -10.04875 | 32926 ft | 418 kts | 218° |
| 2026-05-06 17:03 | 40.16990 | -10.07102 | 33262 ft | 417 kts | 218° |
| 2026-05-06 17:04 | 40.14626 | -10.09381 | 33597 ft | 416 kts | 218° |
| 2026-05-06 17:04 | 40.12327 | -10.11597 | 33926 ft | 416 kts | 218° |
| 2026-05-06 17:04 | 40.10002 | -10.13834 | 34208 ft | 415 kts | 218° |
| 2026-05-06 17:04 | 40.07680 | -10.16066 | 34440 ft | 415 kts | 218° |
| 2026-05-06 17:05 | 40.05348 | -10.18303 | 34650 ft | 416 kts | 218° |
| 2026-05-06 17:05 | 40.03014 | -10.20540 | 34860 ft | 417 kts | 218° |
| 2026-05-06 17:05 | 40.00672 | -10.22787 | 34975 ft | 419 kts | 219° |
| 2026-05-06 17:06 | 39.95939 | -10.27333 | 35005 ft | 426 kts | 219° |
| 2026-05-06 17:06 | 39.91151 | -10.31914 | 35010 ft | 427 kts | 219° |
| 2026-05-06 17:07 | 39.86361 | -10.36496 | 35012 ft | 428 kts | 219° |
| 2026-05-06 17:07 | 39.81560 | -10.41075 | 35010 ft | 428 kts | 218° |
| 2026-05-06 17:08 | 39.76751 | -10.45639 | 34996 ft | 428 kts | 219° |
| 2026-05-06 17:08 | 39.71949 | -10.50193 | 35014 ft | 427 kts | 219° |
| 2026-05-06 17:09 | 39.67156 | -10.54739 | 35024 ft | 427 kts | 219° |
| 2026-05-06 17:09 | 39.62356 | -10.59282 | 35023 ft | 427 kts | 219° |
| 2026-05-06 17:10 | 39.57541 | -10.63827 | 35002 ft | 429 kts | 219° |
| 2026-05-06 17:10 | 39.52707 | -10.68384 | 34980 ft | 430 kts | 219° |
| 2026-05-06 17:11 | 39.47869 | -10.72930 | 35001 ft | 430 kts | 219° |
| 2026-05-06 17:11 | 39.43024 | -10.77474 | 35009 ft | 430 kts | 219° |
| 2026-05-06 17:12 | 39.38186 | -10.82012 | 35013 ft | 430 kts | 219° |
| 2026-05-06 17:12 | 39.33349 | -10.86550 | 35015 ft | 430 kts | 219° |
| 2026-05-06 17:13 | 39.28508 | -10.91081 | 35008 ft | 430 kts | 219° |
| 2026-05-06 17:13 | 39.23664 | -10.95600 | 35008 ft | 430 kts | 219° |
| 2026-05-06 17:14 | 39.18834 | -11.00089 | 35003 ft | 431 kts | 219° |
| 2026-05-06 17:14 | 39.13967 | -11.04614 | 35011 ft | 432 kts | 220° |
| 2026-05-06 17:15 | 39.09085 | -11.09152 | 35016 ft | 433 kts | 219° |
| 2026-05-06 17:15 | 39.04196 | -11.13677 | 35009 ft | 433 kts | 219° |
| 2026-05-06 17:16 | 38.99302 | -11.18195 | 35029 ft | 433 kts | 219° |
| 2026-05-06 17:16 | 38.94414 | -11.22717 | 35031 ft | 433 kts | 219° |
| 2026-05-06 17:17 | 38.89524 | -11.27225 | 35033 ft | 433 kts | 219° |
| 2026-05-06 17:17 | 38.84633 | -11.31724 | 35037 ft | 432 kts | 220° |
| 2026-05-06 17:18 | 38.79732 | -11.36218 | 35014 ft | 433 kts | 220° |
| 2026-05-06 17:18 | 38.74830 | -11.40715 | 35000 ft | 433 kts | 220° |
| 2026-05-06 17:19 | 38.69922 | -11.45212 | 35010 ft | 433 kts | 220° |
| 2026-05-06 17:19 | 38.65013 | -11.49696 | 35014 ft | 434 kts | 220° |
| 2026-05-06 17:20 | 38.60097 | -11.54169 | 35015 ft | 434 kts | 220° |
| 2026-05-06 17:20 | 38.55178 | -11.58647 | 35019 ft | 434 kts | 220° |
| 2026-05-06 17:21 | 38.50263 | -11.63126 | 35013 ft | 434 kts | 220° |
| 2026-05-06 17:21 | 38.45343 | -11.67595 | 35021 ft | 434 kts | 220° |
| 2026-05-06 17:22 | 38.40417 | -11.72056 | 35026 ft | 434 kts | 220° |
| 2026-05-06 17:22 | 38.35489 | -11.76508 | 35037 ft | 435 kts | 220° |
| 2026-05-06 17:23 | 38.30593 | -11.80936 | 35041 ft | 435 kts | 220° |
| 2026-05-06 17:23 | 38.25656 | -11.85381 | 35026 ft | 434 kts | 219° |
| 2026-05-06 17:24 | 38.20724 | -11.89812 | 35038 ft | 434 kts | 219° |
| 2026-05-06 17:24 | 38.15800 | -11.94239 | 35040 ft | 434 kts | 220° |
| 2026-05-06 17:25 | 38.10872 | -11.98661 | 35038 ft | 434 kts | 219° |
| 2026-05-06 17:25 | 38.05941 | -12.03076 | 35037 ft | 434 kts | 219° |
| 2026-05-06 17:26 | 38.01007 | -12.07491 | 35010 ft | 434 kts | 220° |
| 2026-05-06 17:26 | 37.96060 | -12.11901 | 35018 ft | 435 kts | 220° |
| 2026-05-06 17:27 | 37.91096 | -12.16313 | 35026 ft | 436 kts | 220° |
| 2026-05-06 17:27 | 37.86131 | -12.20731 | 35031 ft | 436 kts | 220° |
| 2026-05-06 17:28 | 37.81157 | -12.25145 | 35030 ft | 437 kts | 220° |
| 2026-05-06 17:28 | 37.76179 | -12.29559 | 35036 ft | 437 kts | 220° |
| 2026-05-06 17:29 | 37.71193 | -12.33971 | 35044 ft | 438 kts | 220° |
| 2026-05-06 17:29 | 37.66202 | -12.38378 | 35049 ft | 438 kts | 219° |
| 2026-05-06 17:30 | 37.62049 | -12.42040 | 35032 ft | 438 kts | 220° |
| 2026-05-06 17:30 | 37.57045 | -12.46450 | 35034 ft | 439 kts | 220° |
| 2026-05-06 17:31 | 37.52029 | -12.50864 | 35021 ft | 440 kts | 220° |
| 2026-05-06 17:31 | 37.47008 | -12.55274 | 35031 ft | 440 kts | 220° |
| 2026-05-06 17:32 | 37.41972 | -12.59673 | 35038 ft | 441 kts | 220° |
| 2026-05-06 17:32 | 37.36937 | -12.64067 | 35045 ft | 441 kts | 220° |
| 2026-05-06 17:33 | 37.31901 | -12.68468 | 35045 ft | 441 kts | 220° |
| 2026-05-06 17:33 | 37.26870 | -12.72866 | 35047 ft | 441 kts | 220° |
| 2026-05-06 17:34 | 37.21836 | -12.77260 | 35025 ft | 441 kts | 220° |
| 2026-05-06 17:34 | 37.16788 | -12.81644 | 35030 ft | 442 kts | 220° |
| 2026-05-06 17:35 | 37.11720 | -12.86031 | 35033 ft | 443 kts | 220° |
| 2026-05-06 17:35 | 37.06641 | -12.90422 | 35038 ft | 444 kts | 220° |
| 2026-05-06 17:36 | 36.99056 | -12.96982 | 35019 ft | 444 kts | 220° |
| 2026-05-06 17:36 | 36.93969 | -13.01377 | 35034 ft | 445 kts | 220° |
| 2026-05-06 17:37 | 36.88870 | -13.05765 | 35042 ft | 445 kts | 220° |
| 2026-05-06 17:37 | 36.83768 | -13.10150 | 35052 ft | 445 kts | 220° |
| 2026-05-06 17:38 | 36.78667 | -13.14527 | 35042 ft | 445 kts | 220° |
| 2026-05-06 17:38 | 36.73555 | -13.18909 | 35014 ft | 446 kts | 220° |
| 2026-05-06 17:39 | 36.68434 | -13.23285 | 35027 ft | 447 kts | 220° |
| 2026-05-06 17:39 | 36.63299 | -13.27670 | 35037 ft | 448 kts | 220° |
| 2026-05-06 17:40 | 36.58155 | -13.32059 | 35051 ft | 449 kts | 220° |
| 2026-05-06 17:40 | 36.53003 | -13.36444 | 35051 ft | 449 kts | 220° |
| 2026-05-06 17:41 | 36.47841 | -13.40826 | 35058 ft | 450 kts | 220° |
| 2026-05-06 17:41 | 36.42672 | -13.45204 | 35047 ft | 450 kts | 220° |
| 2026-05-06 17:42 | 36.37510 | -13.49579 | 35045 ft | 449 kts | 220° |
| 2026-05-06 17:42 | 36.32341 | -13.53957 | 35033 ft | 450 kts | 220° |
| 2026-05-06 17:43 | 36.27156 | -13.58339 | 35041 ft | 452 kts | 220° |
| 2026-05-06 17:43 | 36.21992 | -13.62693 | 35048 ft | 452 kts | 220° |
| 2026-05-06 17:44 | 36.16787 | -13.67069 | 35045 ft | 452 kts | 220° |
| 2026-05-06 17:44 | 36.11574 | -13.71434 | 35047 ft | 453 kts | 220° |
| 2026-05-06 17:45 | 36.06366 | -13.75809 | 35051 ft | 453 kts | 220° |
| 2026-05-06 17:45 | 36.01157 | -13.80179 | 35057 ft | 453 kts | 220° |
| 2026-05-06 17:46 | 35.95941 | -13.84543 | 35056 ft | 453 kts | 220° |
| 2026-05-06 17:46 | 35.90715 | -13.88901 | 35046 ft | 456 kts | 220° |
| 2026-05-06 17:47 | 35.85447 | -13.93282 | 35052 ft | 457 kts | 220° |
| 2026-05-06 17:47 | 35.80182 | -13.97663 | 35055 ft | 457 kts | 220° |
| 2026-05-06 17:48 | 35.74911 | -14.02035 | 35058 ft | 457 kts | 220° |
| 2026-05-06 17:48 | 35.69640 | -14.06403 | 35059 ft | 457 kts | 220° |
| 2026-05-06 17:49 | 35.64373 | -14.10770 | 35045 ft | 457 kts | 220° |
| 2026-05-06 17:49 | 35.59105 | -14.15134 | 35052 ft | 457 kts | 220° |
| 2026-05-06 17:50 | 35.53830 | -14.19491 | 35052 ft | 457 kts | 220° |
| 2026-05-06 17:50 | 35.48547 | -14.23835 | 35038 ft | 457 kts | 220° |
| 2026-05-06 17:51 | 35.43253 | -14.28186 | 35041 ft | 459 kts | 220° |
| 2026-05-06 17:51 | 35.37946 | -14.32548 | 35043 ft | 460 kts | 220° |
| 2026-05-06 17:52 | 35.32632 | -14.36912 | 35050 ft | 460 kts | 220° |
| 2026-05-06 17:52 | 35.27305 | -14.41268 | 35054 ft | 460 kts | 220° |
| 2026-05-06 17:53 | 35.21976 | -14.45618 | 35059 ft | 461 kts | 220° |
| 2026-05-06 17:53 | 35.16642 | -14.49968 | 35062 ft | 461 kts | 220° |
| 2026-05-06 17:54 | 35.11312 | -14.54314 | 35070 ft | 461 kts | 220° |
| 2026-05-06 17:54 | 35.05977 | -14.58650 | 35041 ft | 462 kts | 220° |
| 2026-05-06 17:55 | 35.00619 | -14.63006 | 35051 ft | 463 kts | 220° |
| 2026-05-06 17:55 | 34.95255 | -14.67368 | 35057 ft | 464 kts | 220° |
| 2026-05-06 17:56 | 34.89878 | -14.71717 | 35061 ft | 464 kts | 220° |
| 2026-05-06 17:56 | 34.84498 | -14.76060 | 35047 ft | 464 kts | 220° |
| 2026-05-06 17:57 | 34.79109 | -14.80401 | 35051 ft | 464 kts | 220° |
| 2026-05-06 17:57 | 34.73722 | -14.84736 | 35061 ft | 464 kts | 220° |
| 2026-05-06 17:58 | 34.68333 | -14.89074 | 35061 ft | 465 kts | 220° |
| 2026-05-06 17:58 | 34.62937 | -14.93395 | 35063 ft | 465 kts | 220° |
| 2026-05-06 17:59 | 34.57542 | -14.97730 | 35050 ft | 465 kts | 220° |
| 2026-05-06 17:59 | 34.52141 | -15.02060 | 35066 ft | 466 kts | 220° |
| 2026-05-06 18:00 | 34.46718 | -15.06379 | 35071 ft | 466 kts | 220° |
| 2026-05-06 18:00 | 34.41301 | -15.10699 | 35074 ft | 466 kts | 220° |
| 2026-05-06 18:01 | 34.35871 | -15.15007 | 35073 ft | 467 kts | 219° |
| 2026-05-06 18:01 | 34.30260 | -15.19032 | 35073 ft | 470 kts | 216° |
| 2026-05-06 18:02 | 34.24518 | -15.22841 | 35064 ft | 471 kts | 215° |
| 2026-05-06 18:02 | 34.18799 | -15.26649 | 34729 ft | 471 kts | 216° |
| 2026-05-06 18:03 | 34.15941 | -15.28587 | 34487 ft | 471 kts | 216° |
| 2026-05-06 18:03 | 34.13090 | -15.30541 | 34247 ft | 471 kts | 216° |
| 2026-05-06 18:03 | 34.10240 | -15.32507 | 33320 ft | 477 kts | 216° |
| 2026-05-06 18:03 | 34.07343 | -15.34510 | 32333 ft | 482 kts | 216° |
| 2026-05-06 18:04 | 34.04420 | -15.36521 | 31584 ft | 483 kts | 216° |
| 2026-05-06 18:04 | 34.01509 | -15.38509 | 30952 ft | 479 kts | 216° |
| 2026-05-06 18:04 | 33.98608 | -15.40482 | 30310 ft | 478 kts | 215° |
| 2026-05-06 18:04 | 33.95717 | -15.42444 | 29597 ft | 476 kts | 215° |
| 2026-05-06 18:05 | 33.92840 | -15.44395 | 28970 ft | 473 kts | 215° |
| 2026-05-06 18:05 | 33.90028 | -15.46301 | 28344 ft | 469 kts | 215° |
| 2026-05-06 18:05 | 33.87192 | -15.48227 | 27717 ft | 466 kts | 215° |
| 2026-05-06 18:05 | 33.84375 | -15.50140 | 27093 ft | 464 kts | 214° |
| 2026-05-06 18:06 | 33.81571 | -15.52046 | 26471 ft | 461 kts | 214° |
| 2026-05-06 18:06 | 33.78787 | -15.53940 | 25860 ft | 459 kts | 214° |
| 2026-05-06 18:06 | 33.76006 | -15.55824 | 25168 ft | 459 kts | 214° |
| 2026-05-06 18:06 | 33.73233 | -15.57699 | 24569 ft | 456 kts | 213° |
| 2026-05-06 18:07 | 33.70479 | -15.59558 | 24019 ft | 452 kts | 213° |
| 2026-05-06 18:07 | 33.67750 | -15.61399 | 23429 ft | 449 kts | 213° |
| 2026-05-06 18:07 | 33.65043 | -15.63226 | 22879 ft | 443 kts | 213° |
| 2026-05-06 18:07 | 33.62373 | -15.65026 | 22348 ft | 437 kts | 213° |
| 2026-05-06 18:08 | 33.59736 | -15.66804 | 21840 ft | 432 kts | 213° |
| 2026-05-06 18:08 | 33.57131 | -15.68559 | 21347 ft | 427 kts | 213° |
| 2026-05-06 18:08 | 33.54553 | -15.70298 | 20835 ft | 423 kts | 213° |
| 2026-05-06 18:08 | 33.51995 | -15.72021 | 20323 ft | 420 kts | 213° |
| 2026-05-06 18:09 | 33.49461 | -15.73725 | 19798 ft | 416 kts | 213° |
| 2026-05-06 18:09 | 33.46946 | -15.75415 | 19273 ft | 413 kts | 213° |
| 2026-05-06 18:09 | 33.44446 | -15.77096 | 18735 ft | 410 kts | 213° |
| 2026-05-06 18:09 | 33.41973 | -15.78758 | 18303 ft | 405 kts | 213° |
| 2026-05-06 18:10 | 33.39521 | -15.80407 | 17702 ft | 401 kts | 213° |
| 2026-05-06 18:10 | 33.37117 | -15.82019 | 17127 ft | 392 kts | 213° |
| 2026-05-06 18:10 | 33.34762 | -15.83592 | 16624 ft | 383 kts | 213° |
| 2026-05-06 18:10 | 33.32453 | -15.85134 | 16146 ft | 379 kts | 213° |
| 2026-05-06 18:11 | 33.30160 | -15.86667 | 15660 ft | 377 kts | 213° |
| 2026-05-06 18:11 | 33.28649 | -15.87678 | 15336 ft | 376 kts | 213° |
| 2026-05-06 18:11 | 33.25601 | -15.89713 | 14688 ft | 374 kts | 212° |
| 2026-05-06 18:11 | 33.23337 | -15.91225 | 14192 ft | 373 kts | 212° |
| 2026-05-06 18:12 | 33.21079 | -15.92735 | 13690 ft | 370 kts | 212° |
| 2026-05-06 18:12 | 33.18870 | -15.94209 | 13190 ft | 358 kts | 212° |
| 2026-05-06 18:12 | 33.16723 | -15.95638 | 12718 ft | 352 kts | 212° |
| 2026-05-06 18:12 | 33.14592 | -15.97055 | 12255 ft | 350 kts | 212° |
| 2026-05-06 18:13 | 33.12471 | -15.98466 | 11763 ft | 348 kts | 212° |
| 2026-05-06 18:13 | 33.10363 | -15.99868 | 11268 ft | 346 kts | 212° |
| 2026-05-06 18:13 | 33.08267 | -16.01266 | 10799 ft | 345 kts | 212° |
| 2026-05-06 18:13 | 33.06171 | -16.02665 | 10385 ft | 344 kts | 212° |
| 2026-05-06 18:14 | 33.04121 | -16.04026 | 10252 ft | 331 kts | 212° |
| 2026-05-06 18:14 | 33.02808 | -16.04897 | 10182 ft | 323 kts | 212° |
| 2026-05-06 18:14 | 33.00877 | -16.06174 | 10054 ft | 311 kts | 212° |
| 2026-05-06 18:14 | 32.99015 | -16.07405 | 9880 ft | 302 kts | 212° |
| 2026-05-06 18:15 | 32.97182 | -16.08620 | 9430 ft | 299 kts | 212° |
| 2026-05-06 18:15 | 32.95377 | -16.09818 | 8911 ft | 295 kts | 212° |
| 2026-05-06 18:15 | 32.93595 | -16.11001 | 8473 ft | 292 kts | 212° |
| 2026-05-06 18:15 | 32.91824 | -16.12177 | 8045 ft | 292 kts | 211° |
| 2026-05-06 18:16 | 32.90047 | -16.13355 | 7586 ft | 292 kts | 212° |
| 2026-05-06 18:16 | 32.88283 | -16.14561 | 7160 ft | 291 kts | 218° |
| 2026-05-06 18:16 | 32.86828 | -16.16181 | 6774 ft | 285 kts | 236° |
| 2026-05-06 18:16 | 32.85875 | -16.18217 | 6378 ft | 279 kts | 253° |
| 2026-05-06 18:17 | 32.85477 | -16.20440 | 5875 ft | 273 kts | 270° |
| 2026-05-06 18:17 | 32.85420 | -16.22674 | 5404 ft | 268 kts | 271° |
| 2026-05-06 18:17 | 32.85360 | -16.24878 | 4959 ft | 266 kts | 272° |
| 2026-05-06 18:17 | 32.85297 | -16.27077 | 4540 ft | 265 kts | 272° |
| 2026-05-06 18:18 | 32.85234 | -16.29255 | 4261 ft | 259 kts | 272° |
| 2026-05-06 18:18 | 32.85229 | -16.31340 | 4126 ft | 244 kts | 282° |
| 2026-05-06 18:18 | 32.85884 | -16.33080 | 3997 ft | 225 kts | 315° |
| 2026-05-06 18:18 | 32.87138 | -16.34094 | 3604 ft | 222 kts | 345° |
| 2026-05-06 18:19 | 32.88655 | -16.34272 | 3270 ft | 215 kts | 358° |
| 2026-05-06 18:19 | 32.90097 | -16.34318 | 3115 ft | 200 kts | 359° |
| 2026-05-06 18:19 | 32.91451 | -16.34368 | 3008 ft | 190 kts | 358° |
| 2026-05-06 18:19 | 32.92749 | -16.34418 | 2842 ft | 183 kts | 358° |
| 2026-05-06 18:20 | 32.93984 | -16.34468 | 2575 ft | 172 kts | 359° |
| 2026-05-06 18:20 | 32.95164 | -16.34515 | 2341 ft | 167 kts | 359° |
| 2026-05-06 18:20 | 32.96321 | -16.34560 | 2121 ft | 166 kts | 356° |
| 2026-05-06 18:20 | 32.97447 | -16.34604 | 1900 ft | 157 kts | 358° |
| 2026-05-06 18:21 | 32.98507 | -16.34648 | 1710 ft | 146 kts | 358° |
| 2026-05-06 18:21 | 32.99478 | -16.34687 | 1501 ft | 136 kts | 358° |
| 2026-05-06 18:21 | 33.00406 | -16.34722 | 1331 ft | 132 kts | 358° |
| 2026-05-06 18:21 | 33.01319 | -16.34758 | 1158 ft | 130 kts | 358° |
| 2026-05-06 18:22 | 33.02221 | -16.34794 | 999 ft | 129 kts | 359° |
| 2026-05-06 18:22 | 33.03120 | -16.34829 | 827 ft | 131 kts | 359° |
| 2026-05-06 18:22 | 33.04030 | -16.34864 | 684 ft | 130 kts | 358° |
| 2026-05-06 18:22 | 33.04935 | -16.34905 | 502 ft | 128 kts | 358° |
| 2026-05-06 18:23 | 33.05833 | -16.34936 | 324 ft | 132 kts | 359° |
| 2026-05-06 18:23 | 33.06728 | -16.34970 | 255 ft | 119 kts | 0° |
| 2026-05-06 18:23 | 33.07429 | -16.34991 | 248 ft | 83 kts | 358° |
| 2026-05-06 18:23 | 33.07928 | -16.35016 | 242 ft | 63 kts | 358° |
| 2026-05-06 18:24 | 33.08219 | -16.35030 | 248 ft | 29 kts | 357° |
| 2026-05-06 18:24 | 33.08406 | -16.35033 | 250 ft | 25 kts | 359° |
| 2026-05-06 18:24 | 33.08563 | -16.35038 | 253 ft | 20 kts | 358° |
| 2026-05-06 18:24 | 33.08650 | -16.35027 | 251 ft | 11 kts | 32° |
| 2026-05-06 18:25 | 33.08699 | -16.35026 | 250 ft | 9 kts | 276° |
| 2026-05-06 18:25 | 33.08653 | -16.35043 | 251 ft | 8 kts | 177° |
| 2026-05-06 18:25 | 33.08591 | -16.35040 | 253 ft | 10 kts | 178° |
| 2026-05-06 18:25 | 33.08507 | -16.35036 | 253 ft | 15 kts | 178° |
| 2026-05-06 18:26 | 33.08383 | -16.35031 | 249 ft | 21 kts | 178° |
| 2026-05-06 18:26 | 33.08230 | -16.35025 | 247 ft | 22 kts | 178° |
| 2026-05-06 18:26 | 33.08083 | -16.35020 | 246 ft | 22 kts | 179° |
| 2026-05-06 18:26 | 33.07916 | -16.35014 | 242 ft | 25 kts | 178° |
| 2026-05-06 18:27 | 33.07752 | -16.35008 | 245 ft | 22 kts | 178° |
| 2026-05-06 18:27 | 33.07610 | -16.35003 | 245 ft | 20 kts | 178° |
| 2026-05-06 18:27 | 33.07466 | -16.34997 | 247 ft | 20 kts | 179° |
| 2026-05-06 18:27 | 33.07325 | -16.34992 | 252 ft | 21 kts | 179° |
| 2026-05-06 18:28 | 33.07168 | -16.34987 | 251 ft | 25 kts | 178° |
| 2026-05-06 18:28 | 33.07012 | -16.34980 | 251 ft | 17 kts | 178° |
| 2026-05-06 18:28 | 33.06962 | -16.34924 | 251 ft | 11 kts | 97° |
| 2026-05-06 18:28 | 33.06965 | -16.34813 | 249 ft | 15 kts | 88° |
| 2026-05-06 18:29 | 33.06993 | -16.34721 | 249 ft | 10 kts | 30° |
| 2026-05-06 18:29 | 33.07051 | -16.34714 | 249 ft | 6 kts | 8° |
| 2026-05-06 18:29 | 33.07063 | -16.34668 | 249 ft | 7 kts | 89° |
| 2026-05-06 18:29 | 33.07059 | -16.34642 | 249 ft | 2 kts | 126° |
| 2026-05-06 18:30 | 33.07048 | -16.34643 | 249 ft | 2 kts | 200° |
| 2026-05-06 18:30 | 33.07038 | -16.34656 | 249 ft | 2 kts | 225° |
| 2026-05-06 18:30 | 33.07032 | -16.34664 | 249 ft | 0 kts | 225° |